createdAt,value
2018-09-23T00:00:45.761Z,15.03
2018-09-23T00:01:45.762Z,15.05
2018-09-23T00:02:45.974Z,15.04
2018-09-23T00:03:45.674Z,15.04
2018-09-23T00:04:45.645Z,15.06
2018-09-23T00:05:45.718Z,15.07
2018-09-23T00:06:45.724Z,15.07
2018-09-23T00:07:45.714Z,15.06
2018-09-23T00:08:45.859Z,15.07
2018-09-23T00:09:45.774Z,15.06
2018-09-23T00:10:45.653Z,15.06
2018-09-23T00:11:45.897Z,15.06
2018-09-23T00:12:45.655Z,15.06
2018-09-23T00:13:45.811Z,15.04
2018-09-23T00:14:45.853Z,15.05
2018-09-23T00:15:45.670Z,15.06
2018-09-23T00:16:45.679Z,15.06
2018-09-23T00:17:45.669Z,15.03
2018-09-23T00:18:45.750Z,15.02
2018-09-23T00:19:45.916Z,15.02
2018-09-23T00:20:45.624Z,15.01
2018-09-23T00:21:45.882Z,15.01
2018-09-23T00:22:45.898Z,15
2018-09-23T00:23:45.640Z,14.98
2018-09-23T00:24:45.649Z,14.96
2018-09-23T00:25:45.757Z,14.94
2018-09-23T00:26:45.663Z,14.94
2018-09-23T00:27:45.744Z,14.9
2018-09-23T00:28:45.748Z,14.91
2018-09-23T00:29:45.738Z,14.89
2018-09-23T00:30:45.663Z,14.89
2018-09-23T00:31:45.683Z,14.87
2018-09-23T00:32:45.685Z,14.84
2018-09-23T00:33:45.607Z,14.83
2018-09-23T00:34:45.625Z,14.81
2018-09-23T00:35:45.650Z,14.8
2018-09-23T00:36:45.623Z,14.79
2018-09-23T00:37:45.823Z,14.79
2018-09-23T00:38:45.601Z,14.79
2018-09-23T00:39:45.714Z,14.78
2018-09-23T00:40:45.610Z,14.77
2018-09-23T00:41:45.611Z,14.75
2018-09-23T00:42:45.618Z,14.72
2018-09-23T00:43:45.628Z,14.74
2018-09-23T00:44:45.592Z,14.7
2018-09-23T00:45:45.646Z,14.68
2018-09-23T00:46:45.588Z,14.7
2018-09-23T00:47:45.589Z,14.67
2018-09-23T00:48:45.587Z,14.67
2018-09-23T00:49:45.602Z,14.7
2018-09-23T00:50:45.618Z,14.71
2018-09-23T00:51:45.586Z,14.69
2018-09-23T00:52:45.617Z,14.66
2018-09-23T00:53:45.725Z,14.65
2018-09-23T00:54:45.705Z,14.65
2018-09-23T00:55:46.001Z,14.64
2018-09-23T00:56:45.632Z,14.65
2018-09-23T00:57:45.717Z,14.64
2018-09-23T00:58:45.593Z,14.64
2018-09-23T00:59:45.572Z,14.6
2018-09-23T01:00:45.759Z,14.64
2018-09-23T01:01:45.594Z,14.63
2018-09-23T01:02:45.566Z,14.61
2018-09-23T01:03:45.659Z,14.6
2018-09-23T01:04:45.608Z,14.6
2018-09-23T01:05:45.797Z,14.62
2018-09-23T01:06:45.577Z,14.63
2018-09-23T01:07:45.711Z,14.52
2018-09-23T01:08:45.606Z,14.52
2018-09-23T01:09:45.754Z,14.5
2018-09-23T01:10:46.143Z,14.5
2018-09-23T01:11:45.789Z,14.48
2018-09-23T01:12:45.653Z,14.47
2018-09-23T01:13:45.609Z,14.46
2018-09-23T01:14:45.710Z,14.42
2018-09-23T01:15:45.585Z,14.44
2018-09-23T01:16:45.717Z,14.44
2018-09-23T01:17:45.649Z,14.4
2018-09-23T01:18:45.543Z,14.38
2018-09-23T01:19:45.540Z,14.36
2018-09-23T01:20:45.662Z,14.36
2018-09-23T01:21:45.611Z,14.37
2018-09-23T01:22:45.636Z,14.34
2018-09-23T01:23:45.565Z,14.33
2018-09-23T01:24:45.545Z,14.33
2018-09-23T01:25:45.553Z,14.33
2018-09-23T01:26:45.559Z,14.33
2018-09-23T01:27:45.618Z,14.32
2018-09-23T01:28:45.581Z,14.28
2018-09-23T01:29:45.571Z,14.26
2018-09-23T01:30:45.654Z,14.24
2018-09-23T01:31:45.557Z,14.22
2018-09-23T01:32:45.603Z,14.22
2018-09-23T01:33:45.740Z,14.2
2018-09-23T01:34:45.563Z,14.19
2018-09-23T01:35:45.624Z,14.19
2018-09-23T01:36:45.602Z,14.15
2018-09-23T01:37:45.546Z,14.16
2018-09-23T01:38:45.742Z,14.15
2018-09-23T01:39:45.588Z,14.14
2018-09-23T01:40:45.600Z,14.14
2018-09-23T01:41:46.239Z,14.1
2018-09-23T01:42:45.630Z,14.07
2018-09-23T01:43:45.547Z,14.06
2018-09-23T01:44:45.644Z,14.07
2018-09-23T01:45:45.514Z,14.05
2018-09-23T01:46:45.572Z,14.04
2018-09-23T01:47:45.510Z,14.03
2018-09-23T01:48:46.409Z,14.02
2018-09-23T01:49:45.632Z,14.01
2018-09-23T01:50:45.588Z,14
2018-09-23T01:51:45.507Z,13.99
2018-09-23T01:52:45.644Z,13.98
2018-09-23T01:53:45.500Z,13.98
2018-09-23T01:54:45.513Z,13.97
2018-09-23T01:55:45.668Z,13.97
2018-09-23T01:56:45.519Z,13.94
2018-09-23T01:57:45.558Z,13.95
2018-09-23T01:58:45.516Z,13.91
2018-09-23T01:59:45.771Z,13.89
2018-09-23T02:00:45.506Z,13.88
2018-09-23T02:01:45.715Z,13.86
2018-09-23T02:02:45.511Z,13.87
2018-09-23T02:03:45.559Z,13.85
2018-09-23T02:04:45.490Z,13.84
2018-09-23T02:05:45.509Z,13.85
2018-09-23T02:06:45.500Z,13.83
2018-09-23T02:07:45.570Z,13.82
2018-09-23T02:08:45.522Z,13.82
2018-09-23T02:09:45.463Z,13.81
2018-09-23T02:10:45.572Z,13.81
2018-09-23T02:11:45.516Z,13.81
2018-09-23T02:12:45.520Z,13.81
2018-09-23T02:13:45.508Z,13.8
2018-09-23T02:14:45.557Z,13.79
2018-09-23T02:15:45.608Z,13.78
2018-09-23T02:16:45.546Z,13.79
2018-09-23T02:17:45.589Z,13.79
2018-09-23T02:18:45.977Z,13.8
2018-09-23T02:19:45.505Z,13.8
2018-09-23T02:20:45.542Z,13.79
2018-09-23T02:21:45.511Z,13.82
2018-09-23T02:22:45.654Z,13.8
2018-09-23T02:23:45.738Z,13.8
2018-09-23T02:24:45.470Z,13.8
2018-09-23T02:25:45.516Z,13.78
2018-09-23T02:26:45.529Z,13.79
2018-09-23T02:27:46.044Z,13.76
2018-09-23T02:28:46.246Z,13.76
2018-09-23T02:29:45.479Z,13.74
2018-09-23T02:30:45.451Z,13.72
2018-09-23T02:31:45.480Z,13.74
2018-09-23T02:32:45.521Z,13.71
2018-09-23T02:33:45.631Z,13.71
2018-09-23T02:34:45.627Z,13.7
2018-09-23T02:35:45.444Z,13.7
2018-09-23T02:36:45.441Z,13.67
2018-09-23T02:37:45.495Z,13.69
2018-09-23T02:38:45.505Z,13.65
2018-09-23T02:39:45.674Z,13.66
2018-09-23T02:40:45.452Z,13.68
2018-09-23T02:41:45.484Z,13.67
2018-09-23T02:42:45.613Z,13.68
2018-09-23T02:43:45.465Z,13.7
2018-09-23T02:44:45.495Z,13.67
2018-09-23T02:45:45.518Z,13.68
2018-09-23T02:46:45.511Z,13.67
2018-09-23T02:47:45.585Z,13.64
2018-09-23T02:48:45.402Z,13.64
2018-09-23T02:49:45.469Z,13.64
2018-09-23T02:50:45.586Z,13.61
2018-09-23T02:51:45.426Z,13.61
2018-09-23T02:52:45.468Z,13.56
2018-09-23T02:53:45.529Z,13.55
2018-09-23T02:54:45.608Z,13.56
2018-09-23T02:55:45.421Z,13.55
2018-09-23T02:56:45.468Z,13.57
2018-09-23T02:57:45.452Z,13.56
2018-09-23T02:58:45.608Z,13.55
2018-09-23T02:59:45.621Z,13.53
2018-09-23T03:00:45.507Z,13.51
2018-09-23T03:01:45.423Z,13.51
2018-09-23T03:02:45.681Z,13.5
2018-09-23T03:03:45.435Z,13.5
2018-09-23T03:04:45.822Z,13.51
2018-09-23T03:05:45.788Z,13.51
2018-09-23T03:06:45.423Z,13.49
2018-09-23T03:07:46.047Z,13.47
2018-09-23T03:08:45.582Z,13.47
2018-09-23T03:09:45.428Z,13.47
2018-09-23T03:10:45.458Z,13.47
2018-09-23T03:11:45.431Z,13.46
2018-09-23T03:12:45.575Z,13.46
2018-09-23T03:13:45.571Z,13.46
2018-09-23T03:14:45.425Z,13.46
2018-09-23T03:15:45.404Z,13.46
2018-09-23T03:16:45.380Z,13.44
2018-09-23T03:17:45.462Z,13.44
2018-09-23T03:18:45.413Z,13.44
2018-09-23T03:19:45.388Z,13.45
2018-09-23T03:20:45.412Z,13.45
2018-09-23T03:21:45.443Z,13.45
2018-09-23T03:22:45.440Z,13.45
2018-09-23T03:23:45.450Z,13.45
2018-09-23T03:24:45.429Z,13.44
2018-09-23T03:25:45.439Z,13.45
2018-09-23T03:26:45.479Z,13.42
2018-09-23T03:27:45.423Z,13.42
2018-09-23T03:28:45.407Z,13.41
2018-09-23T03:29:45.418Z,13.43
2018-09-23T03:30:45.434Z,13.4
2018-09-23T03:31:45.423Z,13.39
2018-09-23T03:32:45.379Z,13.39
2018-09-23T03:33:45.382Z,13.4
2018-09-23T03:34:45.398Z,13.41
2018-09-23T03:35:45.426Z,13.39
2018-09-23T03:36:45.405Z,13.4
2018-09-23T03:37:45.543Z,13.39
2018-09-23T03:38:45.412Z,13.38
2018-09-23T03:39:45.594Z,13.38
2018-09-23T03:40:45.423Z,13.39
2018-09-23T03:41:45.408Z,13.39
2018-09-23T03:42:45.773Z,13.38
2018-09-23T03:43:45.623Z,13.37
2018-09-23T03:44:45.374Z,13.37
2018-09-23T03:45:45.440Z,13.4
2018-09-23T03:46:45.386Z,13.37
2018-09-23T03:47:45.445Z,13.39
2018-09-23T03:48:45.499Z,13.38
2018-09-23T03:49:45.361Z,13.39
2018-09-23T03:50:45.526Z,13.38
2018-09-23T03:51:45.374Z,13.39
2018-09-23T03:52:45.439Z,13.38
2018-09-23T03:53:46.724Z,13.39
2018-09-23T03:54:45.424Z,13.4
2018-09-23T03:55:45.400Z,13.39
2018-09-23T03:56:45.397Z,13.39
2018-09-23T03:57:45.371Z,13.39
2018-09-23T03:58:45.515Z,13.42
2018-09-23T03:59:45.397Z,13.39
2018-09-23T04:00:45.388Z,13.41
2018-09-23T04:01:45.345Z,13.39
2018-09-23T04:02:45.372Z,13.41
2018-09-23T04:03:45.414Z,13.39
2018-09-23T04:04:45.398Z,13.39
2018-09-23T04:05:45.464Z,13.37
2018-09-23T04:06:45.498Z,13.37
2018-09-23T04:07:45.421Z,13.37
2018-09-23T04:08:45.875Z,13.37
2018-09-23T04:09:45.374Z,13.38
2018-09-23T04:10:45.378Z,13.38
2018-09-23T04:11:45.554Z,13.38
2018-09-23T04:12:45.524Z,13.37
2018-09-23T04:13:45.554Z,13.39
2018-09-23T04:14:45.363Z,13.39
2018-09-23T04:15:45.342Z,13.36
2018-09-23T04:16:45.341Z,13.35
2018-09-23T04:17:45.344Z,13.38
2018-09-23T04:18:45.496Z,13.34
2018-09-23T04:19:45.324Z,13.34
2018-09-23T04:20:45.375Z,13.37
2018-09-23T04:21:45.372Z,13.36
2018-09-23T04:22:45.459Z,13.34
2018-09-23T04:23:45.432Z,13.36
2018-09-23T04:24:45.396Z,13.37
2018-09-23T04:25:46.057Z,13.34
2018-09-23T04:26:45.453Z,13.34
2018-09-23T04:27:45.433Z,13.35
2018-09-23T04:28:45.360Z,13.35
2018-09-23T04:29:45.400Z,13.35
2018-09-23T04:30:45.302Z,13.31
2018-09-23T04:31:45.558Z,13.32
2018-09-23T04:32:45.581Z,13.32
2018-09-23T04:33:45.419Z,13.31
2018-09-23T04:34:45.630Z,13.31
2018-09-23T04:35:45.378Z,13.31
2018-09-23T04:36:45.340Z,13.31
2018-09-23T04:37:45.312Z,13.32
2018-09-23T04:38:45.464Z,13.32
2018-09-23T04:39:45.331Z,13.32
2018-09-23T04:40:45.315Z,13.32
2018-09-23T04:41:45.603Z,13.33
2018-09-23T04:42:45.319Z,13.33
2018-09-23T04:43:45.281Z,13.34
2018-09-23T04:44:45.773Z,13.32
2018-09-23T04:45:45.329Z,13.31
2018-09-23T04:46:45.346Z,13.29
2018-09-23T04:47:45.269Z,13.31
2018-09-23T04:48:45.259Z,13.32
2018-09-23T04:49:45.306Z,13.32
2018-09-23T04:50:45.288Z,13.33
2018-09-23T04:51:45.266Z,13.34
2018-09-23T04:52:45.315Z,13.34
2018-09-23T04:53:45.551Z,13.33
2018-09-23T04:54:45.312Z,13.33
2018-09-23T04:55:45.318Z,13.35
2018-09-23T04:56:45.277Z,13.36
2018-09-23T04:57:45.361Z,13.34
2018-09-23T04:58:45.270Z,13.39
2018-09-23T04:59:45.277Z,13.34
2018-09-23T05:00:45.929Z,13.37
2018-09-23T05:01:45.453Z,13.37
2018-09-23T05:02:45.325Z,13.4
2018-09-23T05:03:45.289Z,13.4
2018-09-23T05:04:45.312Z,13.39
2018-09-23T05:05:45.390Z,13.41
2018-09-23T05:06:45.488Z,13.43
2018-09-23T05:07:45.292Z,13.43
2018-09-23T05:08:49.034Z,13.44
2018-09-23T05:09:45.262Z,13.45
2018-09-23T05:10:45.487Z,13.45
2018-09-23T05:11:46.109Z,13.46
2018-09-23T05:12:45.341Z,13.49
2018-09-23T05:13:45.292Z,13.47
2018-09-23T05:14:45.268Z,13.5
2018-09-23T05:15:45.275Z,13.53
2018-09-23T05:16:45.256Z,13.51
2018-09-23T05:17:45.263Z,13.56
2018-09-23T05:18:45.835Z,13.57
2018-09-23T05:19:45.601Z,13.57
2018-09-23T05:20:45.316Z,13.59
2018-09-23T05:21:45.220Z,13.6
2018-09-23T05:22:45.365Z,13.62
2018-09-23T05:23:45.321Z,13.64
2018-09-23T05:24:45.311Z,13.65
2018-09-23T05:25:45.284Z,13.66
2018-09-23T05:26:45.404Z,13.69
2018-09-23T05:27:45.301Z,13.71
2018-09-23T05:28:45.518Z,13.71
2018-09-23T05:29:45.214Z,13.75
2018-09-23T05:30:45.237Z,13.74
2018-09-23T05:31:45.376Z,13.77
2018-09-23T05:32:45.299Z,13.78
2018-09-23T05:33:45.220Z,13.79
2018-09-23T05:34:45.493Z,13.83
2018-09-23T05:35:45.358Z,13.83
2018-09-23T05:36:45.308Z,13.83
2018-09-23T05:37:45.213Z,13.84
2018-09-23T05:38:45.220Z,13.88
2018-09-23T05:39:45.270Z,13.89
2018-09-23T05:40:49.654Z,13.92
2018-09-23T05:41:45.240Z,13.93
2018-09-23T05:42:45.252Z,13.94
2018-09-23T05:43:45.248Z,13.94
2018-09-23T05:44:45.365Z,13.95
2018-09-23T05:45:45.347Z,13.95
2018-09-23T05:46:45.305Z,13.96
2018-09-23T05:47:45.232Z,13.97
2018-09-23T05:48:45.327Z,13.99
2018-09-23T05:49:45.217Z,14
2018-09-23T05:50:45.171Z,14
2018-09-23T05:51:45.798Z,14.01
2018-09-23T05:52:45.318Z,14.03
2018-09-23T05:53:45.245Z,14.04
2018-09-23T05:54:45.219Z,14.05
2018-09-23T05:55:45.399Z,14.06
2018-09-23T05:56:45.236Z,14.07
2018-09-23T05:57:45.271Z,14.08
2018-09-23T05:58:45.288Z,14.11
2018-09-23T05:59:45.180Z,14.12
2018-09-23T06:00:45.221Z,14.15
2018-09-23T06:01:45.463Z,14.13
2018-09-23T06:02:45.232Z,14.15
2018-09-23T06:03:45.250Z,14.18
2018-09-23T06:04:45.165Z,14.18
2018-09-23T06:05:45.257Z,14.22
2018-09-23T06:06:45.170Z,14.23
2018-09-23T06:07:45.285Z,14.25
2018-09-23T06:08:45.738Z,14.26
2018-09-23T06:09:45.236Z,14.27
2018-09-23T06:10:45.251Z,14.3
2018-09-23T06:11:45.170Z,14.31
2018-09-23T06:12:45.249Z,14.31
2018-09-23T06:13:45.166Z,14.36
2018-09-23T06:14:45.199Z,14.35
2018-09-23T06:15:45.227Z,14.37
2018-09-23T06:16:45.195Z,14.38
2018-09-23T06:17:45.202Z,14.41
2018-09-23T06:18:45.190Z,14.42
2018-09-23T06:19:45.203Z,14.44
2018-09-23T06:20:45.247Z,14.45
2018-09-23T06:21:45.187Z,14.46
2018-09-23T06:22:45.184Z,14.48
2018-09-23T06:23:45.355Z,14.47
2018-09-23T06:24:45.185Z,14.46
2018-09-23T06:25:45.263Z,14.49
2018-09-23T06:26:45.336Z,14.49
2018-09-23T06:27:45.190Z,14.5
2018-09-23T06:28:45.258Z,14.52
2018-09-23T06:29:45.146Z,14.52
2018-09-23T06:30:45.184Z,14.55
2018-09-23T06:31:45.187Z,14.57
2018-09-23T06:32:45.224Z,14.61
2018-09-23T06:33:45.258Z,14.61
2018-09-23T06:34:45.395Z,14.62
2018-09-23T06:35:45.437Z,14.65
2018-09-23T06:36:45.290Z,14.66
2018-09-23T06:37:45.322Z,14.68
2018-09-23T06:38:45.800Z,14.7
2018-09-23T06:39:45.099Z,14.72
2018-09-23T06:40:45.586Z,14.73
2018-09-23T06:41:45.237Z,14.74
2018-09-23T06:42:45.134Z,14.75
2018-09-23T06:43:47.373Z,14.76
2018-09-23T06:44:45.207Z,14.79
2018-09-23T06:45:46.364Z,14.79
2018-09-23T06:46:45.112Z,14.79
2018-09-23T06:47:45.323Z,14.81
2018-09-23T06:48:45.266Z,14.82
2018-09-23T06:49:45.141Z,14.85
2018-09-23T06:50:45.133Z,14.86
2018-09-23T06:51:45.240Z,14.88
2018-09-23T06:52:45.201Z,14.91
2018-09-23T06:53:45.269Z,14.92
2018-09-23T06:54:45.240Z,14.93
2018-09-23T06:55:45.863Z,14.95
2018-09-23T06:56:45.464Z,14.98
2018-09-23T06:57:45.096Z,15
2018-09-23T06:58:45.168Z,15
2018-09-23T06:59:45.101Z,15.04
2018-09-23T07:00:45.283Z,15.05
2018-09-23T07:01:45.248Z,15.06
2018-09-23T07:02:45.260Z,15.09
2018-09-23T07:03:45.262Z,15.11
2018-09-23T07:04:46.386Z,15.13
2018-09-23T07:05:45.295Z,15.16
2018-09-23T07:06:45.097Z,15.16
2018-09-23T07:07:45.284Z,15.2
2018-09-23T07:08:45.390Z,15.2
2018-09-23T07:09:45.403Z,15.23
2018-09-23T07:10:45.313Z,15.25
2018-09-23T07:11:45.106Z,15.24
2018-09-23T07:12:45.333Z,15.28
2018-09-23T07:13:45.246Z,15.3
2018-09-23T07:14:45.532Z,15.34
2018-09-23T07:15:45.126Z,15.35
2018-09-23T07:16:45.252Z,15.38
2018-09-23T07:17:45.305Z,15.4
2018-09-23T07:18:45.122Z,15.42
2018-09-23T07:19:45.274Z,15.41
2018-09-23T07:20:45.190Z,15.44
2018-09-23T07:21:45.140Z,15.43
2018-09-23T07:22:45.119Z,15.45
2018-09-23T07:23:46.109Z,15.45
2018-09-23T07:24:45.140Z,15.49
2018-09-23T07:25:45.211Z,15.49
2018-09-23T07:26:45.073Z,15.51
2018-09-23T07:27:45.452Z,15.54
2018-09-23T07:28:45.145Z,15.56
2018-09-23T07:29:45.099Z,15.59
2018-09-23T07:30:45.162Z,15.58
2018-09-23T07:31:45.180Z,15.62
2018-09-23T07:32:45.130Z,15.66
2018-09-23T07:33:45.155Z,15.66
2018-09-23T07:34:45.072Z,15.68
2018-09-23T07:35:45.170Z,15.72
2018-09-23T07:36:45.967Z,15.74
2018-09-23T07:37:45.128Z,15.73
2018-09-23T07:38:45.196Z,15.79
2018-09-23T07:39:45.532Z,15.82
2018-09-23T07:40:45.053Z,15.84
2018-09-23T07:41:45.039Z,15.87
2018-09-23T07:42:45.175Z,15.91
2018-09-23T07:43:45.121Z,15.92
2018-09-23T07:44:45.258Z,15.91
2018-09-23T07:45:45.139Z,15.94
2018-09-23T07:46:45.177Z,15.95
2018-09-23T07:47:45.364Z,15.96
2018-09-23T07:48:45.156Z,15.98
2018-09-23T07:49:45.275Z,15.99
2018-09-23T07:50:45.513Z,15.99
2018-09-23T07:51:45.197Z,16.03
2018-09-23T07:52:45.153Z,16.05
2018-09-23T07:53:45.215Z,16.11
2018-09-23T07:54:45.570Z,16.16
2018-09-23T07:55:45.476Z,16.24
2018-09-23T07:56:45.220Z,16.3
2018-09-23T07:57:45.279Z,16.33
2018-09-23T07:58:46.258Z,16.48
2018-09-23T07:59:45.102Z,16.54
2018-09-23T08:00:45.176Z,16.64
2018-09-23T08:01:46.247Z,16.69
2018-09-23T08:02:45.219Z,16.8
2018-09-23T08:03:45.675Z,16.88
2018-09-23T08:04:45.055Z,16.97
2018-09-23T08:05:45.023Z,17.06
2018-09-23T08:06:46.235Z,17.1
2018-09-23T08:07:45.200Z,17.11
2018-09-23T08:08:45.172Z,17.11
2018-09-23T08:09:45.092Z,17.18
2018-09-23T08:10:45.272Z,17.18
2018-09-23T08:11:45.704Z,17.23
2018-09-23T08:12:47.501Z,17.3
2018-09-23T08:13:47.414Z,17.35
2018-09-23T08:14:51.205Z,17.43
2018-09-23T08:15:45.127Z,17.42
2018-09-23T08:16:45.187Z,17.46
2018-09-23T08:17:45.028Z,17.54
2018-09-23T08:18:45.379Z,17.53
2018-09-23T08:19:47.920Z,17.61
2018-09-23T08:20:45.522Z,17.61
2018-09-23T08:21:45.159Z,17.6
2018-09-23T08:22:45.132Z,17.68
2018-09-23T08:23:45.264Z,17.69
2018-09-23T08:24:45.046Z,17.72
2018-09-23T08:25:46.172Z,17.76
2018-09-23T08:26:45.037Z,17.75
2018-09-23T08:27:45.078Z,17.79
2018-09-23T08:28:45.049Z,17.82
2018-09-23T08:29:44.971Z,17.81
2018-09-23T08:30:45.026Z,17.87
2018-09-23T08:31:45.629Z,17.88
2018-09-23T08:32:45.432Z,17.92
2018-09-23T08:33:52.070Z,17.94
2018-09-23T08:34:45.253Z,17.95
2018-09-23T08:35:45.026Z,17.96
2018-09-23T08:36:45.175Z,17.97
2018-09-23T08:37:45.185Z,18
2018-09-23T08:38:45.003Z,18.05
2018-09-23T08:39:45.758Z,18.06
2018-09-23T08:40:45.040Z,18.13
2018-09-23T08:41:45.046Z,18.15
2018-09-23T08:42:45.312Z,18.19
2018-09-23T08:43:45.292Z,18.22
2018-09-23T08:44:45.074Z,18.26
2018-09-23T08:45:45.155Z,18.29
2018-09-23T08:46:44.946Z,18.28
2018-09-23T08:47:45.185Z,18.3
2018-09-23T08:48:44.899Z,18.35
2018-09-23T08:49:44.967Z,18.35
2018-09-23T08:50:45.005Z,18.38
2018-09-23T08:51:45.509Z,18.41
2018-09-23T08:52:44.970Z,18.45
2018-09-23T08:53:45.000Z,18.43
2018-09-23T08:54:44.981Z,18.44
2018-09-23T08:55:44.953Z,18.44
2018-09-23T08:56:45.035Z,18.43
2018-09-23T08:57:45.583Z,18.48
2018-09-23T08:58:45.104Z,18.46
2018-09-23T08:59:44.953Z,18.47
2018-09-23T09:00:44.983Z,18.49
2018-09-23T09:01:44.952Z,18.48
2018-09-23T09:02:44.977Z,18.46
2018-09-23T09:03:45.994Z,18.48
2018-09-23T09:04:44.992Z,18.46
2018-09-23T09:05:45.000Z,18.45
2018-09-23T09:06:45.004Z,18.45
2018-09-23T09:07:44.981Z,18.45
2018-09-23T09:08:45.000Z,18.45
2018-09-23T09:09:44.950Z,18.41
2018-09-23T09:10:45.218Z,18.44
2018-09-23T09:11:45.690Z,18.43
2018-09-23T09:12:44.937Z,18.43
2018-09-23T09:13:44.969Z,18.42
2018-09-23T09:14:44.942Z,18.4
2018-09-23T09:15:50.476Z,18.4
2018-09-23T09:16:45.250Z,18.41
2018-09-23T09:17:45.146Z,18.36
2018-09-23T09:18:47.548Z,18.37
2018-09-23T09:19:44.931Z,18.36
2018-09-23T09:20:46.372Z,18.36
2018-09-23T09:21:45.210Z,18.36
2018-09-23T09:22:44.948Z,18.34
2018-09-23T09:23:45.195Z,18.33
2018-09-23T09:24:44.974Z,18.33
2018-09-23T09:25:44.964Z,18.34
2018-09-23T09:26:46.432Z,18.37
2018-09-23T09:27:45.196Z,18.36
2018-09-23T09:28:45.025Z,18.38
2018-09-23T09:29:45.302Z,18.36
2018-09-23T09:30:45.105Z,18.37
2018-09-23T09:31:45.099Z,18.39
2018-09-23T09:32:45.103Z,18.39
2018-09-23T09:33:45.332Z,18.4
2018-09-23T09:34:45.057Z,18.4
2018-09-23T09:35:45.247Z,18.41
2018-09-23T09:36:45.207Z,18.44
2018-09-23T09:37:44.937Z,18.45
2018-09-23T09:38:45.083Z,18.47
2018-09-23T09:39:45.071Z,18.51
2018-09-23T09:40:45.159Z,18.5
2018-09-23T09:41:45.070Z,18.51
2018-09-23T09:42:44.976Z,18.55
2018-09-23T09:43:45.787Z,18.57
2018-09-23T09:44:45.391Z,18.58
2018-09-23T09:45:45.292Z,18.58
2018-09-23T09:46:45.123Z,18.61
2018-09-23T09:47:45.085Z,18.6
2018-09-23T09:48:45.292Z,18.63
2018-09-23T09:49:45.171Z,18.67
2018-09-23T09:50:45.652Z,18.63
2018-09-23T09:51:45.435Z,18.68
2018-09-23T09:52:45.148Z,18.7
2018-09-23T09:53:44.926Z,18.73
2018-09-23T09:54:45.034Z,18.72
2018-09-23T09:55:45.267Z,18.75
2018-09-23T09:56:45.050Z,18.76
2018-09-23T09:57:45.185Z,18.8
2018-09-23T09:58:45.604Z,18.8
2018-09-23T09:59:45.138Z,18.82
2018-09-23T10:00:45.395Z,18.82
2018-09-23T10:01:44.955Z,18.84
2018-09-23T10:02:45.014Z,18.88
2018-09-23T10:03:45.391Z,18.91
2018-09-23T10:04:45.241Z,18.88
2018-09-23T10:05:45.043Z,18.88
2018-09-23T10:06:45.043Z,18.94
2018-09-23T10:07:44.923Z,18.96
2018-09-23T10:08:45.200Z,18.98
2018-09-23T10:09:45.667Z,19.01
2018-09-23T10:10:44.970Z,19.05
2018-09-23T10:11:45.181Z,19.09
2018-09-23T10:12:44.953Z,19.13
2018-09-23T10:13:44.890Z,19.11
2018-09-23T10:14:45.078Z,19.14
2018-09-23T10:15:44.899Z,19.15
2018-09-23T10:16:44.863Z,19.15
2018-09-23T10:17:45.120Z,19.2
2018-09-23T10:18:44.833Z,19.24
2018-09-23T10:19:45.405Z,19.22
2018-09-23T10:20:45.185Z,19.21
2018-09-23T10:21:44.886Z,19.27
2018-09-23T10:22:46.697Z,19.3
2018-09-23T10:23:47.149Z,19.3
2018-09-23T10:24:44.860Z,19.32
2018-09-23T10:25:44.930Z,19.34
2018-09-23T10:26:44.835Z,19.34
2018-09-23T10:27:44.890Z,19.39
2018-09-23T10:28:45.083Z,19.43
2018-09-23T10:29:45.671Z,19.41
2018-09-23T10:30:44.822Z,19.42
2018-09-23T10:31:45.630Z,19.43
2018-09-23T10:32:45.026Z,19.41
2018-09-23T10:33:44.917Z,19.45
2018-09-23T10:34:44.978Z,19.51
2018-09-23T10:35:46.066Z,19.54
2018-09-23T10:36:45.028Z,19.57
2018-09-23T10:37:44.996Z,19.58
2018-09-23T10:38:44.951Z,19.63
2018-09-23T10:39:44.861Z,19.66
2018-09-23T10:40:44.901Z,19.67
2018-09-23T10:41:45.987Z,19.7
2018-09-23T10:42:44.980Z,19.72
2018-09-23T10:43:44.849Z,19.76
2018-09-23T10:44:44.858Z,19.78
2018-09-23T10:45:45.399Z,19.82
2018-09-23T10:46:44.912Z,19.91
2018-09-23T10:47:44.975Z,19.91
2018-09-23T10:48:44.928Z,19.9
2018-09-23T10:49:45.001Z,19.98
2018-09-23T10:50:45.036Z,20.02
2018-09-23T10:51:44.915Z,20.05
2018-09-23T10:52:44.967Z,20.09
2018-09-23T10:53:44.769Z,20.08
2018-09-23T10:54:44.854Z,20.11
2018-09-23T10:55:45.808Z,20.15
2018-09-23T10:56:44.847Z,20.2
2018-09-23T10:57:44.887Z,20.23
2018-09-23T10:58:44.880Z,20.29
2018-09-23T10:59:46.010Z,20.37
2018-09-23T11:00:44.874Z,20.37
2018-09-23T11:01:45.325Z,20.34
2018-09-23T11:02:48.409Z,20.39
2018-09-23T11:03:45.657Z,20.39
2018-09-23T11:04:44.846Z,20.47
2018-09-23T11:05:44.829Z,20.52
2018-09-23T11:06:44.948Z,20.53
2018-09-23T11:07:44.816Z,20.55
2018-09-23T11:08:44.948Z,20.55
2018-09-23T11:09:45.630Z,20.56
2018-09-23T11:10:44.791Z,20.56
2018-09-23T11:11:45.412Z,20.57
2018-09-23T11:12:44.822Z,20.58
2018-09-23T11:13:44.807Z,20.58
2018-09-23T11:14:44.918Z,20.6
2018-09-23T11:15:44.943Z,20.62
2018-09-23T11:16:45.131Z,20.64
2018-09-23T11:17:44.808Z,20.66
2018-09-23T11:18:44.951Z,20.68
2018-09-23T11:19:44.850Z,20.69
2018-09-23T11:20:44.796Z,20.68
2018-09-23T11:21:45.070Z,20.72
2018-09-23T11:22:44.958Z,20.71
2018-09-23T11:23:44.823Z,20.72
2018-09-23T11:24:45.517Z,20.76
2018-09-23T11:25:44.785Z,20.79
2018-09-23T11:26:44.797Z,20.83
2018-09-23T11:27:45.006Z,20.86
2018-09-23T11:28:44.814Z,20.9
2018-09-23T11:29:44.817Z,20.93
2018-09-23T11:30:45.550Z,20.91
2018-09-23T11:31:44.819Z,20.91
2018-09-23T11:32:44.793Z,20.94
2018-09-23T11:33:44.947Z,20.96
2018-09-23T11:34:45.135Z,20.99
2018-09-23T11:35:44.766Z,21
2018-09-23T11:36:44.960Z,21.03
2018-09-23T11:37:44.770Z,21.1
2018-09-23T11:38:44.783Z,21.14
2018-09-23T11:39:46.320Z,21.2
2018-09-23T11:40:44.750Z,21.19
2018-09-23T11:41:44.742Z,21.22
2018-09-23T11:42:45.137Z,21.24
2018-09-23T11:43:44.845Z,21.3
2018-09-23T11:44:45.083Z,21.35
2018-09-23T11:45:44.817Z,21.37
2018-09-23T11:46:44.777Z,21.4
2018-09-23T11:47:44.928Z,21.42
2018-09-23T11:48:44.851Z,21.45
2018-09-23T11:49:45.043Z,21.47
2018-09-23T11:50:44.947Z,21.49
2018-09-23T11:51:44.933Z,21.47
2018-09-23T11:52:44.767Z,21.48
2018-09-23T11:53:44.845Z,21.51
2018-09-23T11:54:44.926Z,21.54
2018-09-23T11:55:44.870Z,21.62
2018-09-23T11:56:45.190Z,21.69
2018-09-23T11:57:44.936Z,21.68
2018-09-23T11:58:45.621Z,21.7
2018-09-23T11:59:45.183Z,21.77
2018-09-23T12:00:44.969Z,21.8
2018-09-23T12:01:44.846Z,21.84
2018-09-23T12:02:45.053Z,21.89
2018-09-23T12:03:44.786Z,21.93
2018-09-23T12:04:44.748Z,22.01
2018-09-23T12:05:44.949Z,22.04
2018-09-23T12:06:44.953Z,22.09
2018-09-23T12:07:44.916Z,22.08
2018-09-23T12:08:44.838Z,22.07
2018-09-23T12:09:44.896Z,22.08
2018-09-23T12:10:45.048Z,22.08
2018-09-23T12:11:45.392Z,22.19
2018-09-23T12:12:44.867Z,22.23
2018-09-23T12:13:44.868Z,22.2
2018-09-23T12:14:45.650Z,22.29
2018-09-23T12:15:46.004Z,22.26
2018-09-23T12:16:44.742Z,22.32
2018-09-23T12:17:44.771Z,22.37
2018-09-23T12:18:44.865Z,22.38
2018-09-23T12:19:44.890Z,22.45
2018-09-23T12:20:45.462Z,22.49
2018-09-23T12:21:44.680Z,22.56
2018-09-23T12:22:44.924Z,22.63
2018-09-23T12:23:44.786Z,22.68
2018-09-23T12:24:44.725Z,22.72
2018-09-23T12:25:46.218Z,22.81
2018-09-23T12:26:44.816Z,22.81
2018-09-23T12:27:45.098Z,22.9
2018-09-23T12:28:44.732Z,22.93
2018-09-23T12:29:45.145Z,23
2018-09-23T12:30:44.721Z,23.06
2018-09-23T12:31:44.717Z,23.13
2018-09-23T12:32:44.789Z,23.24
2018-09-23T12:33:44.738Z,23.28
2018-09-23T12:34:44.836Z,23.31
2018-09-23T12:35:45.061Z,23.36
2018-09-23T12:36:44.774Z,23.42
2018-09-23T12:37:44.785Z,23.44
2018-09-23T12:38:44.937Z,23.43
2018-09-23T12:39:45.535Z,23.37
2018-09-23T12:40:44.783Z,23.35
2018-09-23T12:41:44.937Z,23.32
2018-09-23T12:42:44.678Z,23.31
2018-09-23T12:43:44.717Z,23.27
2018-09-23T12:44:44.753Z,23.26
2018-09-23T12:45:44.715Z,23.25
2018-09-23T12:46:44.711Z,23.25
2018-09-23T12:47:44.743Z,23.24
2018-09-23T12:48:45.014Z,23.25
2018-09-23T12:49:44.834Z,23.26
2018-09-23T12:50:45.351Z,23.2
2018-09-23T12:51:44.714Z,23.19
2018-09-23T12:52:44.691Z,23.2
2018-09-23T12:53:44.749Z,23.23
2018-09-23T12:54:44.669Z,23.31
2018-09-23T12:55:44.833Z,23.32